sensor_id;sensor_type;location;lat;lon;timestamp;pressure;altitude;pressure_sealevel;temperature
68440;BMP180;55421;51.600;5.718;2022-09-09T00:01:15;223241.59;;;15.70
68440;BMP180;55421;51.600;5.718;2022-09-09T00:04:28;223274.00;;;15.70
68440;BMP180;55421;51.600;5.718;2022-09-09T00:07:05;223298.00;;;15.80
68440;BMP180;55421;51.600;5.718;2022-09-09T00:09:46;223285.59;;;15.76
68440;BMP180;55421;51.600;5.718;2022-09-09T00:12:31;223248.00;;;15.70
68440;BMP180;55421;51.600;5.718;2022-09-09T00:15:12;223246.41;;;15.70
68440;BMP180;55421;51.600;5.718;2022-09-09T00:17:56;223216.41;;;15.60
68440;BMP180;55421;51.600;5.718;2022-09-09T00:20:45;223193.20;;;15.60
68440;BMP180;55421;51.600;5.718;2022-09-09T00:23:25;223216.41;;;15.60
68440;BMP180;55421;51.600;5.718;2022-09-09T00:31:39;223284.00;;;15.74
68440;BMP180;55421;51.600;5.718;2022-09-09T00:34:13;223297.59;;;15.80
68440;BMP180;55421;51.600;5.718;2022-09-09T00:36:43;223298.00;;;15.80
68440;BMP180;55421;51.600;5.718;2022-09-09T00:39:41;223323.00;;;15.80
68440;BMP180;55421;51.600;5.718;2022-09-09T00:42:26;223332.59;;;15.86
68440;BMP180;55421;51.600;5.718;2022-09-09T00:48:10;223274.00;;;15.70
68440;BMP180;55421;51.600;5.718;2022-09-09T00:50:50;223222.80;;;15.60
68440;BMP180;55421;51.600;5.718;2022-09-09T00:56:25;223206.80;;;15.60
68440;BMP180;55421;51.600;5.718;2022-09-09T01:01:38;223226.00;;;15.64
68440;BMP180;55421;51.600;5.718;2022-09-09T01:04:13;223235.59;;;15.70
68440;BMP180;55421;51.600;5.718;2022-09-09T01:06:49;223226.00;;;15.64
68440;BMP180;55421;51.600;5.718;2022-09-09T01:09:45;223205.20;;;15.60
68440;BMP180;55421;51.600;5.718;2022-09-09T01:12:34;223206.80;;;15.60
68440;BMP180;55421;51.600;5.718;2022-09-09T01:15:12;223213.20;;;15.60
68440;BMP180;55421;51.600;5.718;2022-09-09T01:20:41;223198.80;;;15.60
68440;BMP180;55421;51.600;5.718;2022-09-09T01:24:01;223183.20;;;15.60
68440;BMP180;55421;51.600;5.718;2022-09-09T01:26:43;223122.41;;;15.50
68440;BMP180;55421;51.600;5.718;2022-09-09T01:29:19;223075.20;;;15.40
68440;BMP180;55421;51.600;5.718;2022-09-09T01:32:35;223049.20;;;15.30
68440;BMP180;55421;51.600;5.718;2022-09-09T01:34:49;223017.59;;;15.30
68440;BMP180;55421;51.600;5.718;2022-09-09T01:37:16;222988.80;;;15.20
68440;BMP180;55421;51.600;5.718;2022-09-09T01:39:44;223002.00;;;15.26
68440;BMP180;55421;51.600;5.718;2022-09-09T01:42:15;222951.80;;;15.20
68440;BMP180;55421;51.600;5.718;2022-09-09T01:44:42;222933.41;;;15.10
68440;BMP180;55421;51.600;5.718;2022-09-09T01:47:09;222930.20;;;15.10
68440;BMP180;55421;51.600;5.718;2022-09-09T01:49:35;222951.80;;;15.20
68440;BMP180;55421;51.600;5.718;2022-09-09T01:52:02;222927.00;;;15.10
68440;BMP180;55421;51.600;5.718;2022-09-09T01:54:31;222891.41;;;15.10
68440;BMP180;55421;51.600;5.718;2022-09-09T01:57:44;222879.41;;;15.04
68440;BMP180;55421;51.600;5.718;2022-09-09T02:00:14;222872.41;;;15.00
68440;BMP180;55421;51.600;5.718;2022-09-09T02:03:09;222889.80;;;15.10
68440;BMP180;55421;51.600;5.718;2022-09-09T02:05:51;222923.80;;;15.10
68440;BMP180;55421;51.600;5.718;2022-09-09T02:08:35;222928.59;;;15.10
68440;BMP180;55421;51.600;5.718;2022-09-09T02:11:18;222925.41;;;15.10
68440;BMP180;55421;51.600;5.718;2022-09-09T02:13:51;222927.00;;;15.10
68440;BMP180;55421;51.600;5.718;2022-09-09T02:16:30;222923.80;;;15.10
68440;BMP180;55421;51.600;5.718;2022-09-09T02:22:02;222893.41;;;15.10
68440;BMP180;55421;51.600;5.718;2022-09-09T02:24:36;222899.41;;;15.10
68440;BMP180;55421;51.600;5.718;2022-09-09T02:27:06;222938.20;;;15.10
68440;BMP180;55421;51.600;5.718;2022-09-09T02:29:40;222927.00;;;15.10
68440;BMP180;55421;51.600;5.718;2022-09-09T02:32:17;222923.80;;;15.10
68440;BMP180;55421;51.600;5.718;2022-09-09T02:34:55;222938.20;;;15.10
68440;BMP180;55421;51.600;5.718;2022-09-09T02:37:30;222971.41;;;15.20
68440;BMP180;55421;51.600;5.718;2022-09-09T02:39:58;222980.41;;;15.20
68440;BMP180;55421;51.600;5.718;2022-09-09T02:42:24;222981.41;;;15.20
68440;BMP180;55421;51.600;5.718;2022-09-09T02:44:51;222941.41;;;15.10
68440;BMP180;55421;51.600;5.718;2022-09-09T02:47:34;222950.20;;;15.20
68440;BMP180;55421;51.600;5.718;2022-09-09T02:50:26;222927.00;;;15.10
68440;BMP180;55421;51.600;5.718;2022-09-09T02:53:18;222899.00;;;15.10
68440;BMP180;55421;51.600;5.718;2022-09-09T02:56:14;222919.00;;;15.10
68440;BMP180;55421;51.600;5.718;2022-09-09T02:58:42;222938.20;;;15.10
68440;BMP180;55421;51.600;5.718;2022-09-09T03:01:08;222950.20;;;15.20
68440;BMP180;55421;51.600;5.718;2022-09-09T03:03:35;222927.00;;;15.10
68440;BMP180;55421;51.600;5.718;2022-09-09T03:06:02;222887.00;;;15.06
68440;BMP180;55421;51.600;5.718;2022-09-09T03:08:28;222898.20;;;15.10
68440;BMP180;55421;51.600;5.718;2022-09-09T03:10:55;222887.41;;;15.06
68440;BMP180;55421;51.600;5.718;2022-09-09T03:13:24;222843.20;;;15.00
68440;BMP180;55421;51.600;5.718;2022-09-09T03:15:51;222867.00;;;15.00
68440;BMP180;55421;51.600;5.718;2022-09-09T03:18:18;222897.80;;;15.10
68440;BMP180;55421;51.600;5.718;2022-09-09T03:20:46;222893.80;;;15.10
68440;BMP180;55421;51.600;5.718;2022-09-09T03:23:17;222857.80;;;15.00
68440;BMP180;55421;51.600;5.718;2022-09-09T03:25:48;222822.41;;;14.90
68440;BMP180;55421;51.600;5.718;2022-09-09T03:28:15;222813.59;;;14.90
68440;BMP180;55421;51.600;5.718;2022-09-09T03:30:42;222840.41;;;15.00
68440;BMP180;55421;51.600;5.718;2022-09-09T03:33:08;222894.59;;;15.10
68440;BMP180;55421;51.600;5.718;2022-09-09T03:35:35;222927.00;;;15.10
68440;BMP180;55421;51.600;5.718;2022-09-09T03:38:01;222944.59;;;15.12
68440;BMP180;55421;51.600;5.718;2022-09-09T03:40:28;222945.80;;;15.20
68440;BMP180;55421;51.600;5.718;2022-09-09T03:42:54;222933.41;;;15.10
68440;BMP180;55421;51.600;5.718;2022-09-09T03:45:21;222939.80;;;15.10
68440;BMP180;55421;51.600;5.718;2022-09-09T03:47:47;222968.20;;;15.20
68440;BMP180;55421;51.600;5.718;2022-09-09T03:50:13;222954.59;;;15.20
68440;BMP180;55421;51.600;5.718;2022-09-09T03:52:41;222951.80;;;15.20
68440;BMP180;55421;51.600;5.718;2022-09-09T03:55:08;222947.41;;;15.20
68440;BMP180;55421;51.600;5.718;2022-09-09T03:57:35;222943.00;;;15.12
68440;BMP180;55421;51.600;5.718;2022-09-09T04:00:06;222944.20;;;15.14
68440;BMP180;55421;51.600;5.718;2022-09-09T04:02:33;222936.59;;;15.10
68440;BMP180;55421;51.600;5.718;2022-09-09T04:05:00;222951.80;;;15.20
68440;BMP180;55421;51.600;5.718;2022-09-09T04:07:27;222963.41;;;15.20
68440;BMP180;55421;51.600;5.718;2022-09-09T04:09:54;222975.59;;;15.20
68440;BMP180;55421;51.600;5.718;2022-09-09T04:12:20;223017.59;;;15.30
68440;BMP180;55421;51.600;5.718;2022-09-09T04:14:48;223049.20;;;15.30
68440;BMP180;55421;51.600;5.718;2022-09-09T04:17:15;223074.00;;;15.40
68440;BMP180;55421;51.600;5.718;2022-09-09T04:19:42;223071.20;;;15.40
68440;BMP180;55421;51.600;5.718;2022-09-09T04:22:09;223081.20;;;15.40
68440;BMP180;55421;51.600;5.718;2022-09-09T04:24:35;223081.20;;;15.40
68440;BMP180;55421;51.600;5.718;2022-09-09T04:27:02;223066.80;;;15.40
68440;BMP180;55421;51.600;5.718;2022-09-09T04:29:28;223082.41;;;15.40
68440;BMP180;55421;51.600;5.718;2022-09-09T04:31:55;223103.59;;;15.40
68440;BMP180;55421;51.600;5.718;2022-09-09T04:34:21;223121.80;;;15.50
68440;BMP180;55421;51.600;5.718;2022-09-09T04:36:48;223142.59;;;15.50
68440;BMP180;55421;51.600;5.718;2022-09-09T04:39:14;223153.80;;;15.50
68440;BMP180;55421;51.600;5.718;2022-09-09T04:41:40;223148.41;;;15.50
68440;BMP180;55421;51.600;5.718;2022-09-09T04:44:07;223149.41;;;15.50
68440;BMP180;55421;51.600;5.718;2022-09-09T04:46:33;223136.59;;;15.50
68440;BMP180;55421;51.600;5.718;2022-09-09T04:49:03;223138.20;;;15.50
68440;BMP180;55421;51.600;5.718;2022-09-09T04:51:29;223136.59;;;15.50
68440;BMP180;55421;51.600;5.718;2022-09-09T04:53:58;223099.20;;;15.40
68440;BMP180;55421;51.600;5.718;2022-09-09T04:56:24;223093.59;;;15.40
68440;BMP180;55421;51.600;5.718;2022-09-09T04:58:52;223100.80;;;15.40
68440;BMP180;55421;51.600;5.718;2022-09-09T05:01:21;223113.41;;;15.44
68440;BMP180;55421;51.600;5.718;2022-09-09T05:03:50;223116.59;;;15.50
68440;BMP180;55421;51.600;5.718;2022-09-09T05:06:20;223118.20;;;15.50
68440;BMP180;55421;51.600;5.718;2022-09-09T05:08:47;223074.00;;;15.40
68440;BMP180;55421;51.600;5.718;2022-09-09T05:11:20;223071.20;;;15.40
68440;BMP180;55421;51.600;5.718;2022-09-09T05:13:51;223066.41;;;15.40
68440;BMP180;55421;51.600;5.718;2022-09-09T05:16:19;223057.20;;;15.32
68440;BMP180;55421;51.600;5.718;2022-09-09T05:18:47;223066.41;;;15.40
68440;BMP180;55421;51.600;5.718;2022-09-09T05:21:21;223058.80;;;15.36
68440;BMP180;55421;51.600;5.718;2022-09-09T05:23:47;223040.00;;;15.30
68440;BMP180;55421;51.600;5.718;2022-09-09T05:26:20;223028.00;;;15.30
68440;BMP180;55421;51.600;5.718;2022-09-09T05:28:47;223047.59;;;15.30
68440;BMP180;55421;51.600;5.718;2022-09-09T05:31:16;223058.80;;;15.38
68440;BMP180;55421;51.600;5.718;2022-09-09T05:33:46;223093.59;;;15.40
68440;BMP180;55421;51.600;5.718;2022-09-09T05:36:18;223139.80;;;15.50
68440;BMP180;55421;51.600;5.718;2022-09-09T05:38:44;223148.41;;;15.50
68440;BMP180;55421;51.600;5.718;2022-09-09T05:41:12;223136.59;;;15.50
68440;BMP180;55421;51.600;5.718;2022-09-09T05:43:41;223136.59;;;15.50
68440;BMP180;55421;51.600;5.718;2022-09-09T05:46:14;223152.59;;;15.50
68440;BMP180;55421;51.600;5.718;2022-09-09T05:48:44;223178.41;;;15.52
68440;BMP180;55421;51.600;5.718;2022-09-09T05:51:16;223181.59;;;15.60
68440;BMP180;55421;51.600;5.718;2022-09-09T05:53:45;223181.59;;;15.60
68440;BMP180;55421;51.600;5.718;2022-09-09T05:56:18;223169.20;;;15.50
68440;BMP180;55421;51.600;5.718;2022-09-09T05:59:05;223144.20;;;15.50
68440;BMP180;55421;51.600;5.718;2022-09-09T06:01:35;223148.00;;;15.50
68440;BMP180;55421;51.600;5.718;2022-09-09T06:04:02;223148.00;;;15.50
68440;BMP180;55421;51.600;5.718;2022-09-09T06:06:33;223144.20;;;15.50
68440;BMP180;55421;51.600;5.718;2022-09-09T06:09:04;223147.20;;;15.50
68440;BMP180;55421;51.600;5.718;2022-09-09T06:11:40;223172.80;;;15.56
68440;BMP180;55421;51.600;5.718;2022-09-09T06:14:07;223189.20;;;15.60
68440;BMP180;55421;51.600;5.718;2022-09-09T06:16:35;223228.80;;;15.68
68440;BMP180;55421;51.600;5.718;2022-09-09T06:19:03;223268.80;;;15.70
68440;BMP180;55421;51.600;5.718;2022-09-09T06:21:33;223318.20;;;15.80
68440;BMP180;55421;51.600;5.718;2022-09-09T06:24:01;223341.80;;;15.90
68440;BMP180;55421;51.600;5.718;2022-09-09T06:26:37;223348.20;;;15.90
68440;BMP180;55421;51.600;5.718;2022-09-09T06:29:08;223349.80;;;15.90
68440;BMP180;55421;51.600;5.718;2022-09-09T06:31:36;223357.80;;;15.90
68440;BMP180;55421;51.600;5.718;2022-09-09T06:34:07;223385.80;;;15.90
68440;BMP180;55421;51.600;5.718;2022-09-09T06:36:37;223427.59;;;16.00
68440;BMP180;55421;51.600;5.718;2022-09-09T06:39:06;223454.41;;;16.02
68440;BMP180;55421;51.600;5.718;2022-09-09T06:41:33;223477.00;;;16.10
68440;BMP180;55421;51.600;5.718;2022-09-09T06:43:59;223504.20;;;16.10
68440;BMP180;55421;51.600;5.718;2022-09-09T06:46:30;223529.80;;;16.20
68440;BMP180;55421;51.600;5.718;2022-09-09T06:48:59;223585.41;;;16.30
68440;BMP180;55421;51.600;5.718;2022-09-09T06:51:33;223579.80;;;16.30
68440;BMP180;55421;51.600;5.718;2022-09-09T06:54:01;223586.80;;;16.30
68440;BMP180;55421;51.600;5.718;2022-09-09T06:56:31;223587.00;;;16.30
68440;BMP180;55421;51.600;5.718;2022-09-09T06:59:05;223615.59;;;16.32
68440;BMP180;55421;51.600;5.718;2022-09-09T07:01:34;223636.41;;;16.40
68440;BMP180;55421;51.600;5.718;2022-09-09T07:04:03;223695.80;;;16.50
68440;BMP180;55421;51.600;5.718;2022-09-09T07:06:34;223689.00;;;16.44
68440;BMP180;55421;51.600;5.718;2022-09-09T07:09:07;223674.59;;;16.40
68440;BMP180;55421;51.600;5.718;2022-09-09T07:11:42;223668.20;;;16.40
68440;BMP180;55421;51.600;5.718;2022-09-09T07:14:10;223701.41;;;16.50
68440;BMP180;55421;51.600;5.718;2022-09-09T07:16:44;223762.20;;;16.60
68440;BMP180;55421;51.600;5.718;2022-09-09T07:19:13;223827.20;;;16.70
68440;BMP180;55421;51.600;5.718;2022-09-09T07:21:41;223884.41;;;16.80
68440;BMP180;55421;51.600;5.718;2022-09-09T07:24:07;223914.59;;;16.90
68440;BMP180;55421;51.600;5.718;2022-09-09T07:26:38;223894.59;;;16.80
68440;BMP180;55421;51.600;5.718;2022-09-09T07:29:06;223929.00;;;16.90
68440;BMP180;55421;51.600;5.718;2022-09-09T07:31:36;223896.20;;;16.84
68440;BMP180;55421;51.600;5.718;2022-09-09T07:34:04;223903.00;;;16.88
68440;BMP180;55421;51.600;5.718;2022-09-09T07:36:35;223950.41;;;16.90
68440;BMP180;55421;51.600;5.718;2022-09-09T07:39:05;224017.20;;;17.06
68440;BMP180;55421;51.600;5.718;2022-09-09T07:41:38;224062.20;;;17.10
68440;BMP180;55421;51.600;5.718;2022-09-09T07:44:09;224104.20;;;17.20
68440;BMP180;55421;51.600;5.718;2022-09-09T07:46:38;224115.00;;;17.20
68440;BMP180;55421;51.600;5.718;2022-09-09T07:49:05;224125.80;;;17.24
68440;BMP180;55421;51.600;5.718;2022-09-09T07:51:35;224154.59;;;17.30
68440;BMP180;55421;51.600;5.718;2022-09-09T07:54:07;224185.20;;;17.30
68440;BMP180;55421;51.600;5.718;2022-09-09T07:56:37;224251.00;;;17.50
68440;BMP180;55421;51.600;5.718;2022-09-09T07:59:04;224279.41;;;17.50
68440;BMP180;55421;51.600;5.718;2022-09-09T08:01:40;224268.20;;;17.50
68440;BMP180;55421;51.600;5.718;2022-09-09T08:04:10;224284.20;;;17.50
68440;BMP180;55421;51.600;5.718;2022-09-09T08:06:46;224290.59;;;17.50
68440;BMP180;55421;51.600;5.718;2022-09-09T08:09:14;224286.20;;;17.50
68440;BMP180;55421;51.600;5.718;2022-09-09T08:11:42;224278.20;;;17.50
68440;BMP180;55421;51.600;5.718;2022-09-09T08:14:11;224252.20;;;17.44
68440;BMP180;55421;51.600;5.718;2022-09-09T08:16:43;224228.20;;;17.40
68440;BMP180;55421;51.600;5.718;2022-09-09T08:19:11;224236.80;;;17.40
68440;BMP180;55421;51.600;5.718;2022-09-09T08:21:39;224255.80;;;17.50
68440;BMP180;55421;51.600;5.718;2022-09-09T08:24:08;224269.41;;;17.50
68440;BMP180;55421;51.600;5.718;2022-09-09T08:26:40;224301.80;;;17.54
68440;BMP180;55421;51.600;5.718;2022-09-09T08:29:11;224311.00;;;17.60
68440;BMP180;55421;51.600;5.718;2022-09-09T08:31:46;224321.80;;;17.60
68440;BMP180;55421;51.600;5.718;2022-09-09T08:34:14;224355.80;;;17.66
68440;BMP180;55421;51.600;5.718;2022-09-09T08:36:44;224376.41;;;17.70
68440;BMP180;55421;51.600;5.718;2022-09-09T08:39:15;224401.80;;;17.70
68440;BMP180;55421;51.600;5.718;2022-09-09T08:48:08;224491.41;;;17.90
68440;BMP180;55421;51.600;5.718;2022-09-09T08:50:38;224535.80;;;18.00
68440;BMP180;55421;51.600;5.718;2022-09-09T08:53:31;224555.20;;;18.00
68440;BMP180;55421;51.600;5.718;2022-09-09T08:56:14;224563.20;;;18.00
68440;BMP180;55421;51.600;5.718;2022-09-09T08:58:50;224571.20;;;18.00
68440;BMP180;55421;51.600;5.718;2022-09-09T09:05:00;224585.20;;;18.00
68440;BMP180;55421;51.600;5.718;2022-09-09T09:08:26;224594.00;;;18.10
68440;BMP180;55421;51.600;5.718;2022-09-09T09:10:50;224624.80;;;18.10
68440;BMP180;55421;51.600;5.718;2022-09-09T09:13:24;224614.00;;;18.10
68440;BMP180;55421;51.600;5.718;2022-09-09T09:16:00;224623.20;;;18.10
68440;BMP180;55421;51.600;5.718;2022-09-09T09:18:28;224620.41;;;18.10
68440;BMP180;55421;51.600;5.718;2022-09-09T09:21:16;224617.20;;;18.10
68440;BMP180;55421;51.600;5.718;2022-09-09T09:23:59;224593.59;;;18.10
68440;BMP180;55421;51.600;5.718;2022-09-09T09:26:35;224556.80;;;18.00
68440;BMP180;55421;51.600;5.718;2022-09-09T09:29:15;224502.59;;;17.90
68440;BMP180;55421;51.600;5.718;2022-09-09T09:31:48;224477.00;;;17.90
68440;BMP180;55421;51.600;5.718;2022-09-09T09:34:17;224448.59;;;17.80
68440;BMP180;55421;51.600;5.718;2022-09-09T09:36:53;224428.59;;;17.80
68440;BMP180;55421;51.600;5.718;2022-09-09T09:39:30;224431.41;;;17.80
68440;BMP180;55421;51.600;5.718;2022-09-09T09:41:57;224464.20;;;17.82
68440;BMP180;55421;51.600;5.718;2022-09-09T09:44:31;224497.80;;;17.90
68440;BMP180;55421;51.600;5.718;2022-09-09T09:47:14;224521.41;;;17.96
68440;BMP180;55421;51.600;5.718;2022-09-09T09:50:00;224560.00;;;18.00
68440;BMP180;55421;51.600;5.718;2022-09-09T09:52:30;224580.80;;;18.00
68440;BMP180;55421;51.600;5.718;2022-09-09T09:54:58;224568.00;;;18.00
68440;BMP180;55421;51.600;5.718;2022-09-09T09:57:29;224571.20;;;18.00
68440;BMP180;55421;51.600;5.718;2022-09-09T10:00:13;224568.00;;;18.00
68440;BMP180;55421;51.600;5.718;2022-09-09T10:02:43;224563.20;;;18.00
68440;BMP180;55421;51.600;5.718;2022-09-09T10:05:20;224563.20;;;18.00
68440;BMP180;55421;51.600;5.718;2022-09-09T10:08:04;224553.59;;;18.00
68440;BMP180;55421;51.600;5.718;2022-09-09T10:14:30;224609.20;;;18.10
68440;BMP180;55421;51.600;5.718;2022-09-09T10:16:47;224671.20;;;18.20
68440;BMP180;55421;51.600;5.718;2022-09-09T10:19:33;224707.80;;;18.30
68440;BMP180;55421;51.600;5.718;2022-09-09T10:22:25;224733.59;;;18.30
68440;BMP180;55421;51.600;5.718;2022-09-09T10:25:38;224800.41;;;18.40
68440;BMP180;55421;51.600;5.718;2022-09-09T10:29:16;224858.59;;;18.50
68440;BMP180;55421;51.600;5.718;2022-09-09T10:35:13;224762.41;;;18.40
68440;BMP180;55421;51.600;5.718;2022-09-09T10:38:05;224687.00;;;18.20
68440;BMP180;55421;51.600;5.718;2022-09-09T10:44:20;224623.20;;;18.10
68440;BMP180;55421;51.600;5.718;2022-09-09T10:47:03;224617.20;;;18.10
68440;BMP180;55421;51.600;5.718;2022-09-09T10:55:53;224442.20;;;17.80
68440;BMP180;55421;51.600;5.718;2022-09-09T10:58:32;224407.41;;;17.70
68440;BMP180;55421;51.600;5.718;2022-09-09T11:01:12;224354.20;;;17.66
68440;BMP180;55421;51.600;5.718;2022-09-09T11:03:45;224323.80;;;17.60
68440;BMP180;55421;51.600;5.718;2022-09-09T11:06:21;224285.80;;;17.50
68440;BMP180;55421;51.600;5.718;2022-09-09T11:08:52;224244.59;;;17.44
68440;BMP180;55421;51.600;5.718;2022-09-09T11:11:45;224227.80;;;17.40
68440;BMP180;55421;51.600;5.718;2022-09-09T11:14:48;224209.20;;;17.40
68440;BMP180;55421;51.600;5.718;2022-09-09T11:17:26;224222.41;;;17.40
68440;BMP180;55421;51.600;5.718;2022-09-09T11:19:54;224209.20;;;17.40
68440;BMP180;55421;51.600;5.718;2022-09-09T11:22:33;224249.41;;;17.44
68440;BMP180;55421;51.600;5.718;2022-09-09T11:25:23;224287.41;;;17.50
68440;BMP180;55421;51.600;5.718;2022-09-09T11:31:40;224415.80;;;17.76
68440;BMP180;55421;51.600;5.718;2022-09-09T11:40:23;224537.41;;;18.00
68440;BMP180;55421;51.600;5.718;2022-09-09T11:45:41;224827.59;;;18.50
68440;BMP180;55421;51.600;5.718;2022-09-09T11:48:36;224953.59;;;18.70
68440;BMP180;55421;51.600;5.718;2022-09-09T11:51:10;225039.41;;;18.90
68440;BMP180;55421;51.600;5.718;2022-09-09T11:56:29;225102.20;;;19.00
68440;BMP180;55421;51.600;5.718;2022-09-09T12:01:37;225031.80;;;18.80
68440;BMP180;55421;51.600;5.718;2022-09-09T12:04:15;224985.20;;;18.76
68440;BMP180;55421;51.600;5.718;2022-09-09T12:06:52;224958.41;;;18.70
68440;BMP180;55421;51.600;5.718;2022-09-09T12:09:33;224883.80;;;18.60
68440;BMP180;55421;51.600;5.718;2022-09-09T12:15:00;224800.41;;;18.40
68440;BMP180;55421;51.600;5.718;2022-09-09T12:17:31;224790.80;;;18.40
68440;BMP180;55421;51.600;5.718;2022-09-09T12:23:18;224762.41;;;18.40
68440;BMP180;55421;51.600;5.718;2022-09-09T12:28:49;224840.00;;;18.50
68440;BMP180;55421;51.600;5.718;2022-09-09T12:32:16;224913.80;;;18.60
68440;BMP180;55421;51.600;5.718;2022-09-09T12:34:55;224991.59;;;18.78
68440;BMP180;55421;51.600;5.718;2022-09-09T12:37:43;225057.41;;;18.90
68440;BMP180;55421;51.600;5.718;2022-09-09T12:40:25;225103.41;;;19.00
68440;BMP180;55421;51.600;5.718;2022-09-09T12:42:52;225149.41;;;19.06
68440;BMP180;55421;51.600;5.718;2022-09-09T12:45:40;225132.59;;;19.00
68440;BMP180;55421;51.600;5.718;2022-09-09T12:48:10;225146.20;;;19.06
68440;BMP180;55421;51.600;5.718;2022-09-09T12:50:49;225141.41;;;19.00
68440;BMP180;55421;51.600;5.718;2022-09-09T12:53:25;225124.20;;;19.00
68440;BMP180;55421;51.600;5.718;2022-09-09T12:55:58;225124.20;;;19.00
68440;BMP180;55421;51.600;5.718;2022-09-09T12:58:26;225154.20;;;19.10
68440;BMP180;55421;51.600;5.718;2022-09-09T13:00:55;225151.00;;;19.02
68440;BMP180;55421;51.600;5.718;2022-09-09T13:03:27;225141.41;;;19.02
68440;BMP180;55421;51.600;5.718;2022-09-09T13:05:58;225119.41;;;19.00
68440;BMP180;55421;51.600;5.718;2022-09-09T13:08:26;225108.20;;;19.00
68440;BMP180;55421;51.600;5.718;2022-09-09T13:11:01;225105.00;;;19.00
68440;BMP180;55421;51.600;5.718;2022-09-09T13:13:37;225099.41;;;19.00
68440;BMP180;55421;51.600;5.718;2022-09-09T13:16:07;225105.00;;;19.00
68440;BMP180;55421;51.600;5.718;2022-09-09T13:18:44;225105.00;;;19.00
68440;BMP180;55421;51.600;5.718;2022-09-09T13:21:11;225073.80;;;18.90
68440;BMP180;55421;51.600;5.718;2022-09-09T13:23:37;225051.00;;;18.90
68440;BMP180;55421;51.600;5.718;2022-09-09T13:26:21;225021.00;;;18.80
68440;BMP180;55421;51.600;5.718;2022-09-09T13:28:48;225012.20;;;18.80
68440;BMP180;55421;51.600;5.718;2022-09-09T13:31:30;224972.41;;;18.70
68440;BMP180;55421;51.600;5.718;2022-09-09T13:33:58;224919.59;;;18.60
68440;BMP180;55421;51.600;5.718;2022-09-09T13:36:34;224859.20;;;18.50
68440;BMP180;55421;51.600;5.718;2022-09-09T13:39:03;224834.80;;;18.50
68440;BMP180;55421;51.600;5.718;2022-09-09T13:41:33;224827.59;;;18.50
68440;BMP180;55421;51.600;5.718;2022-09-09T13:44:02;224819.59;;;18.50
68440;BMP180;55421;51.600;5.718;2022-09-09T13:46:40;224798.80;;;18.40
68440;BMP180;55421;51.600;5.718;2022-09-09T13:51:43;224718.41;;;18.30
68440;BMP180;55421;51.600;5.718;2022-09-09T13:54:14;224726.00;;;18.30
68440;BMP180;55421;51.600;5.718;2022-09-09T13:56:42;224757.59;;;18.38
68440;BMP180;55421;51.600;5.718;2022-09-09T13:59:18;224787.59;;;18.40
68440;BMP180;55421;51.600;5.718;2022-09-09T14:01:46;224826.00;;;18.50
68440;BMP180;55421;51.600;5.718;2022-09-09T14:04:13;224857.41;;;18.50
68440;BMP180;55421;51.600;5.718;2022-09-09T14:06:42;224904.20;;;18.60
68440;BMP180;55421;51.600;5.718;2022-09-09T14:09:13;224992.00;;;18.80
68440;BMP180;55421;51.600;5.718;2022-09-09T14:11:42;225036.20;;;18.84
68440;BMP180;55421;51.600;5.718;2022-09-09T14:14:09;225076.59;;;18.90
68440;BMP180;55421;51.600;5.718;2022-09-09T14:16:35;225162.20;;;19.10
68440;BMP180;55421;51.600;5.718;2022-09-09T14:19:02;225249.00;;;19.20
68440;BMP180;55421;51.600;5.718;2022-09-09T14:21:29;225291.80;;;19.30
68440;BMP180;55421;51.600;5.718;2022-09-09T14:23:56;225323.00;;;19.40
68440;BMP180;55421;51.600;5.718;2022-09-09T14:26:24;225360.41;;;19.40
68440;BMP180;55421;51.600;5.718;2022-09-09T14:28:52;225394.80;;;19.50
68440;BMP180;55421;51.600;5.718;2022-09-09T14:31:18;225452.80;;;19.60
68440;BMP180;55421;51.600;5.718;2022-09-09T14:33:45;225495.80;;;19.70
68440;BMP180;55421;51.600;5.718;2022-09-09T14:36:12;225526.41;;;19.70
68440;BMP180;55421;51.600;5.718;2022-09-09T14:38:39;225545.59;;;19.70
68440;BMP180;55421;51.600;5.718;2022-09-09T14:41:07;225537.20;;;19.70
68440;BMP180;55421;51.600;5.718;2022-09-09T14:43:35;225536.80;;;19.70
68440;BMP180;55421;51.600;5.718;2022-09-09T14:46:10;225560.00;;;19.80
68440;BMP180;55421;51.600;5.718;2022-09-09T14:48:37;225617.20;;;19.90
68440;BMP180;55421;51.600;5.718;2022-09-09T14:51:08;225665.41;;;20.00
68440;BMP180;55421;51.600;5.718;2022-09-09T14:53:36;225687.80;;;20.00
68440;BMP180;55421;51.600;5.718;2022-09-09T14:56:06;225686.20;;;20.00
68440;BMP180;55421;51.600;5.718;2022-09-09T14:58:33;225691.00;;;20.00
68440;BMP180;55421;51.600;5.718;2022-09-09T15:01:06;225684.59;;;20.00
68440;BMP180;55421;51.600;5.718;2022-09-09T15:03:33;225637.41;;;19.90
68440;BMP180;55421;51.600;5.718;2022-09-09T15:06:10;225595.59;;;19.84
68440;BMP180;55421;51.600;5.718;2022-09-09T15:08:40;225564.41;;;19.80
68440;BMP180;55421;51.600;5.718;2022-09-09T15:11:07;225547.20;;;19.70
68440;BMP180;55421;51.600;5.718;2022-09-09T15:13:34;225520.41;;;19.70
68440;BMP180;55421;51.600;5.718;2022-09-09T15:18:35;225467.41;;;19.60
68440;BMP180;55421;51.600;5.718;2022-09-09T15:21:05;225454.00;;;19.60
68440;BMP180;55421;51.600;5.718;2022-09-09T15:23:33;225444.80;;;19.60
68440;BMP180;55421;51.600;5.718;2022-09-09T15:26:00;225417.59;;;19.50
68440;BMP180;55421;51.600;5.718;2022-09-09T15:28:27;225400.41;;;19.50
68440;BMP180;55421;51.600;5.718;2022-09-09T15:30:54;225416.00;;;19.50
68440;BMP180;55421;51.600;5.718;2022-09-09T15:33:22;225419.20;;;19.50
68440;BMP180;55421;51.600;5.718;2022-09-09T15:35:49;225414.41;;;19.50
68440;BMP180;55421;51.600;5.718;2022-09-09T15:38:16;225406.00;;;19.50
68440;BMP180;55421;51.600;5.718;2022-09-09T15:40:44;225382.41;;;19.50
68440;BMP180;55421;51.600;5.718;2022-09-09T15:43:12;225355.59;;;19.40
68440;BMP180;55421;51.600;5.718;2022-09-09T15:45:39;225331.80;;;19.40
68440;BMP180;55421;51.600;5.718;2022-09-09T15:48:05;225290.20;;;19.30
68440;BMP180;55421;51.600;5.718;2022-09-09T15:50:32;225174.59;;;19.10